Time;durP1;ratioP1;P1;durP2;ratioP2;P2;SDS_P1;SDS_P2;PMS_P1;PMS_P2;Temp;Humidity;BMP_temperature;BMP_pressure;BME280_temperature;BME280_humidity;BME280_pressure;Samples;Min_cycle;Max_cycle;Signal;HPM_P1;HPM_P2
2021/12/02 00:00:34;;;;;;;11.40;1.63;;;;;;;3.86;79.23;99819.84;5070749;28;20033;-84
2021/12/02 00:02:59;;;;;;;10.17;1.80;;;;;;;3.90;79.00;99816.38;5072096;28;20498;-84
2021/12/02 00:05:24;;;;;;;7.67;2.00;;;;;;;3.91;79.37;99818.06;5073828;28;20027;-83
2021/12/02 00:07:51;;;;;;;10.37;1.80;;;;;;;3.91;79.84;99818.91;5071883;28;20040;-84
2021/12/02 00:10:16;;;;;;;7.47;1.57;;;;;;;3.92;79.41;99824.91;5067642;28;20060;-83
2021/12/02 00:12:42;;;;;;;11.63;1.90;;;;;;;3.97;79.10;99810.25;5073942;28;20184;-84
2021/12/02 00:15:12;;;;;;;10.30;1.83;;;;;;;3.94;79.43;99812.84;5068067;28;20029;-84
2021/12/02 00:17:38;;;;;;;9.00;1.60;;;;;;;3.90;79.48;99806.06;5070396;28;20479;-83
2021/12/02 00:23:27;;;;;;;7.53;1.40;;;;;;;3.88;80.02;99818.94;5067274;28;20442;-84
2021/12/02 00:25:53;;;;;;;7.80;1.80;;;;;;;3.85;80.01;99829.28;5068282;28;20454;-83
2021/12/02 00:28:19;;;;;;;9.53;1.20;;;;;;;3.85;79.67;99821.56;5066059;28;20519;-84
2021/12/02 00:30:44;;;;;;;4.93;0.90;;;;;;;3.83;79.36;99814.75;5068170;28;20482;-83
2021/12/02 00:33:11;;;;;;;6.00;1.00;;;;;;;3.84;79.62;99813.88;5070488;28;20495;-84
2021/12/02 00:35:36;;;;;;;6.57;1.20;;;;;;;3.84;79.26;99821.59;5069717;28;20483;-84
2021/12/02 00:38:01;;;;;;;5.30;0.93;;;;;;;3.84;79.25;99817.31;5065578;28;20032;-84
2021/12/02 00:40:27;;;;;;;5.93;0.90;;;;;;;3.86;79.17;99822.44;5067582;28;20380;-84
2021/12/02 00:42:52;;;;;;;4.67;0.80;;;;;;;3.85;79.58;99815.56;5072516;28;20023;-83
2021/12/02 00:45:18;;;;;;;5.93;0.90;;;;;;;3.83;79.27;99812.16;5068341;28;20103;-84
2021/12/02 00:47:45;;;;;;;5.37;0.90;;;;;;;3.80;79.24;99808.75;5067219;28;22073;-84
2021/12/02 00:50:11;;;;;;;3.87;0.80;;;;;;;3.84;79.61;99821.59;5066549;28;20043;-83
2021/12/02 00:52:37;;;;;;;6.50;0.80;;;;;;;3.86;79.60;99820.69;5069267;28;20032;-84
2021/12/02 00:55:03;;;;;;;4.43;0.90;;;;;;;3.84;79.85;99826.75;5071197;28;20040;-84
2021/12/02 00:57:29;;;;;;;5.67;0.87;;;;;;;3.85;79.83;99823.28;5066431;28;20487;-83
2021/12/02 00:59:57;;;;;;;7.53;1.40;;;;;;;3.81;79.80;99817.34;5068283;28;20028;-84
2021/12/02 01:02:23;;;;;;;6.97;1.10;;;;;;;3.83;79.96;99825.03;5068279;28;20028;-83
2021/12/02 01:04:49;;;;;;;3.47;1.00;;;;;;;3.83;80.61;99814.75;5068286;28;20461;-83
2021/12/02 01:07:16;;;;;;;5.53;0.83;;;;;;;3.85;80.58;99818.97;5069502;28;20565;-84
2021/12/02 01:09:41;;;;;;;6.00;1.27;;;;;;;3.83;80.61;99830.19;5068717;28;20103;-84
2021/12/02 01:12:07;;;;;;;5.00;1.10;;;;;;;3.83;80.55;99843.03;5069041;28;20560;-84
2021/12/02 01:14:32;;;;;;;6.17;1.10;;;;;;;3.82;81.27;99849.06;5068781;28;20027;-84
2021/12/02 01:16:57;;;;;;;5.00;1.00;;;;;;;3.78;81.65;99849.09;5069128;28;20498;-84
2021/12/02 01:19:23;;;;;;;5.63;1.10;;;;;;;3.74;82.42;99842.31;5068517;28;20194;-83
2021/12/02 01:21:50;;;;;;;6.43;1.13;;;;;;;3.69;82.48;99838.94;5068136;28;20455;-83
2021/12/02 01:24:16;;;;;;;5.80;1.00;;;;;;;3.65;82.67;99837.28;5065341;28;20028;-83
2021/12/02 01:26:52;;;;;;;6.63;1.10;;;;;;;3.63;82.47;99833.88;5068011;28;20020;-83
2021/12/02 01:29:21;;;;;;;6.50;1.20;;;;;;;3.58;82.48;99836.53;5067654;28;20021;-83
2021/12/02 01:31:50;;;;;;;5.97;1.00;;;;;;;3.59;83.37;99832.22;5068206;28;20036;-83
2021/12/02 01:34:21;;;;;;;7.97;1.70;;;;;;;3.61;83.54;99848.47;5066809;28;20483;-83
2021/12/02 01:36:49;;;;;;;6.20;0.90;;;;;;;3.63;83.39;99844.16;5069107;28;20043;-83
2021/12/02 01:39:14;;;;;;;6.63;1.70;;;;;;;3.67;83.51;99838.13;5067821;28;20028;-83
2021/12/02 01:41:50;;;;;;;7.73;1.07;;;;;;;3.69;83.40;99840.66;5067876;28;20035;-83
2021/12/02 01:44:19;;;;;;;4.87;1.30;;;;;;;3.72;83.06;99843.19;5066787;28;20052;-83
2021/12/02 01:46:47;;;;;;;6.57;1.33;;;;;;;3.72;83.28;99848.34;5069570;28;20021;-83
2021/12/02 01:49:13;;;;;;;6.63;1.13;;;;;;;3.70;83.08;99856.09;5067101;28;20040;-84
2021/12/02 01:51:44;;;;;;;6.63;1.20;;;;;;;3.71;83.54;99865.50;5064352;28;20033;-83
2021/12/02 01:54:16;;;;;;;7.75;1.20;;;;;;;3.71;83.46;99859.50;5066289;28;20131;-83
2021/12/02 01:56:44;;;;;;;6.53;1.58;;;;;;;3.69;83.20;99863.81;5066524;28;20723;-83
2021/12/02 01:59:12;;;;;;;5.23;1.10;;;;;;;3.69;83.20;99868.94;5066629;28;20029;-83
2021/12/02 02:01:41;;;;;;;4.80;1.37;;;;;;;3.69;83.02;99864.66;5067820;28;20020;-83
2021/12/02 02:04:07;;;;;;;7.77;1.30;;;;;;;3.66;82.79;99866.44;5065775;28;20533;-83
2021/12/02 02:06:44;;;;;;;5.97;1.20;;;;;;;3.64;81.84;99851.00;5067235;28;20024;-84
2021/12/02 02:09:09;;;;;;;6.67;1.10;;;;;;;3.59;81.89;99852.78;5067685;28;20028;-84
2021/12/02 02:11:35;;;;;;;6.47;1.03;;;;;;;3.56;83.07;99843.41;5071537;28;20027;-83
2021/12/02 02:14:01;;;;;;;4.27;0.90;;;;;;;3.53;83.15;99840.88;5073012;28;20027;-83
2021/12/02 02:16:28;;;;;;;6.90;1.07;;;;;;;3.54;83.84;99849.44;5076086;28;20104;-83
2021/12/02 02:18:53;;;;;;;4.47;0.90;;;;;;;3.49;83.29;99847.78;5072386;28;20115;-83
2021/12/02 02:21:22;;;;;;;5.87;1.00;;;;;;;3.49;82.76;99852.91;5073941;28;20406;-83
2021/12/02 02:23:55;;;;;;;4.03;0.80;;;;;;;3.47;82.59;99849.50;5069722;28;20090;-83
2021/12/02 02:26:26;;;;;;;4.83;1.00;;;;;;;3.45;83.14;99845.28;5071806;28;20492;-83
2021/12/02 02:28:52;;;;;;;3.80;1.00;;;;;;;3.44;82.85;99844.41;5070225;28;20025;-84
2021/12/02 02:31:17;;;;;;;5.10;0.80;;;;;;;3.45;83.00;99845.28;5072004;28;20024;-83
2021/12/02 02:33:51;;;;;;;3.50;0.93;;;;;;;3.44;83.46;99844.41;5071662;28;20024;-83
2021/12/02 02:36:19;;;;;;;3.87;0.90;;;;;;;3.48;83.45;99842.66;5069090;28;20031;-83
2021/12/02 02:38:54;;;;;;;5.00;0.90;;;;;;;3.47;82.77;99843.53;5077690;28;20069;-83
2021/12/02 02:41:21;;;;;;;5.77;0.80;;;;;;;3.48;83.24;99840.94;5069527;28;20495;-84
2021/12/02 02:43:53;;;;;;;5.30;0.90;;;;;;;3.47;83.03;99838.38;5071035;28;20028;-83
2021/12/02 02:46:23;;;;;;;3.75;0.90;;;;;;;3.48;83.08;99840.94;5068309;28;20028;-83
2021/12/02 02:48:48;;;;;;;6.20;1.10;;;;;;;3.46;82.82;99831.53;5068137;28;20040;-83
2021/12/02 02:51:13;;;;;;;5.40;1.10;;;;;;;3.43;82.77;99829.84;5068574;28;20383;-83
2021/12/02 02:53:39;;;;;;;4.37;1.10;;;;;;;3.41;82.96;99829.03;5070078;28;20036;-83
2021/12/02 03:01:22;;;;;;;7.57;1.50;;;;;;;3.27;83.53;99836.91;5071025;28;20037;-83
2021/12/02 03:06:31;;;;;;;7.00;1.67;;;;;;;3.23;83.86;99839.53;5068608;28;20060;-83
2021/12/02 03:09:08;;;;;;;9.47;1.70;;;;;;;3.19;84.02;99834.44;5068748;28;20040;-83
2021/12/02 03:11:47;;;;;;;5.13;1.60;;;;;;;3.17;84.00;99843.88;5070289;28;20040;-83
2021/12/02 03:14:18;;;;;;;6.93;1.57;;;;;;;3.10;83.75;99847.38;5068137;28;20024;-82
2021/12/02 03:16:44;;;;;;;6.40;1.70;;;;;;;3.10;84.02;99849.09;5069359;28;20082;-83
2021/12/02 03:19:23;;;;;;;4.83;1.43;;;;;;;3.09;84.03;99855.94;5067004;28;20078;-84
2021/12/02 03:21:48;;;;;;;8.00;1.73;;;;;;;3.05;83.68;99862.00;5066626;28;20103;-84
2021/12/02 03:24:14;;;;;;;6.30;1.60;;;;;;;3.02;83.43;99867.19;5068098;28;20155;-83
2021/12/02 03:26:39;;;;;;;5.63;1.57;;;;;;;3.02;83.50;99857.72;5071314;28;20036;-83
2021/12/02 03:29:05;;;;;;;9.03;1.60;;;;;;;3.02;83.11;99862.03;5070405;28;20062;-84
2021/12/02 03:31:31;;;;;;;6.63;1.43;;;;;;;3.02;83.17;99862.03;5069995;28;20024;-84
2021/12/02 03:33:56;;;;;;;5.90;1.40;;;;;;;2.99;83.12;99872.34;5068999;28;20020;-83
2021/12/02 03:36:22;;;;;;;8.57;1.60;;;;;;;2.97;83.10;99864.66;5066946;28;20028;-83
2021/12/02 03:38:47;;;;;;;9.20;1.43;;;;;;;2.98;83.31;99870.63;5070689;28;20063;-83
2021/12/02 03:41:14;;;;;;;7.53;1.50;;;;;;;2.92;83.53;99870.69;5067779;28;20139;-84
2021/12/02 03:43:42;;;;;;;6.87;1.30;;;;;;;2.94;83.50;99866.38;5067203;28;20037;-83
2021/12/02 03:46:09;;;;;;;9.37;1.67;;;;;;;2.87;83.20;99871.59;5068438;28;20499;-84
2021/12/02 03:48:38;;;;;;;6.30;1.40;;;;;;;2.86;83.21;99869.91;5066708;28;20340;-84
2021/12/02 03:51:05;;;;;;;7.83;1.70;;;;;;;2.86;83.32;99872.47;5067348;28;20025;-84
2021/12/02 03:53:30;;;;;;;5.77;1.47;;;;;;;2.85;83.31;99875.03;5070768;28;20020;-84
2021/12/02 03:55:55;;;;;;;6.80;1.37;;;;;;;2.87;83.40;99865.59;5065868;28;21835;-84
2021/12/02 03:58:21;;;;;;;4.50;1.40;;;;;;;2.87;83.30;99869.03;5066757;28;20463;-84
2021/12/02 04:00:46;;;;;;;8.13;1.20;;;;;;;2.87;83.15;99863.03;5067383;28;20078;-83
2021/12/02 04:03:12;;;;;;;8.17;1.23;;;;;;;2.86;83.04;99861.31;5067806;28;20025;-83
2021/12/02 04:05:37;;;;;;;8.37;1.30;;;;;;;2.88;83.01;99859.59;5070116;28;20029;-83
2021/12/02 04:08:03;;;;;;;9.33;1.50;;;;;;;2.87;83.16;99858.75;5032140;28;1013962;-83
2021/12/02 04:10:28;;;;;;;6.50;1.10;;;;;;;2.88;83.09;99865.59;5067772;28;20032;-84
2021/12/02 04:13:10;;;;;;;8.37;1.40;;;;;;;2.89;82.59;99856.16;5069713;28;20032;-83
2021/12/02 04:15:39;;;;;;;7.97;1.45;;;;;;;2.92;82.77;99855.28;5068682;28;20493;-83
2021/12/02 04:18:05;;;;;;;5.43;1.30;;;;;;;2.88;82.47;99855.31;5068308;28;20040;-83
2021/12/02 04:20:31;;;;;;;7.57;1.20;;;;;;;2.90;82.67;99851.91;5069576;28;20494;-83
2021/12/02 04:22:57;;;;;;;9.70;1.67;;;;;;;2.87;82.54;99848.47;5069646;28;20025;-83
2021/12/02 04:25:23;;;;;;;6.77;1.20;;;;;;;2.86;82.52;99851.91;5070744;28;20059;-83
2021/12/02 04:27:50;;;;;;;5.97;0.90;;;;;;;2.87;82.66;99857.91;5070413;28;20471;-84
2021/12/02 04:30:18;;;;;;;8.30;0.90;;;;;;;2.92;82.65;99860.41;5066056;28;20032;-83
2021/12/02 04:32:44;;;;;;;7.43;1.40;;;;;;;2.89;82.16;99856.16;5069703;28;20036;-84
2021/12/02 04:35:11;;;;;;;6.90;1.10;;;;;;;2.88;82.36;99875.88;5070386;28;20043;-84
2021/12/02 04:37:37;;;;;;;7.63;1.10;;;;;;;2.92;82.53;99873.25;5067994;28;20024;-84
2021/12/02 04:40:03;;;;;;;5.47;1.20;;;;;;;2.90;82.57;99882.72;5068602;28;20483;-84
2021/12/02 04:42:29;;;;;;;8.20;1.20;;;;;;;2.86;82.33;99890.44;5071431;28;20016;-84
2021/12/02 04:44:55;;;;;;;6.60;1.00;;;;;;;2.86;81.99;99898.16;5069954;28;20029;-83
2021/12/02 04:47:20;;;;;;;5.10;1.10;;;;;;;2.87;81.43;99894.72;5068929;28;20078;-83
2021/12/02 04:49:46;;;;;;;3.53;1.10;;;;;;;2.81;81.98;99893.94;5069057;28;20028;-84
2021/12/02 04:52:11;;;;;;;4.50;0.93;;;;;;;2.78;82.38;99894.78;5070567;28;20044;-83
2021/12/02 04:54:36;;;;;;;4.60;0.67;;;;;;;2.76;81.58;99893.13;5069314;28;20020;-83
2021/12/02 04:57:03;;;;;;;5.53;0.90;;;;;;;2.68;nan;99894.03;5071345;28;20468;-83
2021/12/02 04:59:28;;;;;;;7.17;1.10;;;;;;;2.60;81.62;99885.53;5065443;28;20496;-83
2021/12/02 05:01:53;;;;;;;4.77;0.77;;;;;;;2.62;81.50;99885.53;5067932;28;20028;-84
2021/12/02 05:04:18;;;;;;;6.73;1.00;;;;;;;2.57;81.38;99891.53;5065317;28;20037;-83
2021/12/02 05:06:44;;;;;;;4.87;0.90;;;;;;;2.53;81.68;99892.44;5068840;28;20028;-83
2021/12/02 05:09:09;;;;;;;4.30;0.80;;;;;;;2.54;81.60;99901.88;5067681;28;20028;-83
2021/12/02 05:11:35;;;;;;;6.63;1.27;;;;;;;2.56;81.78;99907.81;5067868;28;20032;-84
2021/12/02 05:14:01;;;;;;;3.40;0.70;;;;;;;2.51;82.07;99907.00;5066791;28;20574;-83
2021/12/02 05:16:26;;;;;;;4.77;1.00;;;;;;;2.51;82.42;99914.72;5067504;28;20020;-83
2021/12/02 05:18:51;;;;;;;4.40;1.20;;;;;;;2.54;82.24;99919.84;5068500;28;20024;-83
2021/12/02 05:21:17;;;;;;;5.13;1.40;;;;;;;2.53;82.46;99915.56;5069996;28;20036;-83
2021/12/02 05:23:43;;;;;;;6.60;1.30;;;;;;;2.56;82.92;99920.66;5068001;28;20043;-83
2021/12/02 05:26:08;;;;;;;5.00;1.10;;;;;;;2.54;82.85;99911.25;5069083;28;20033;-83
2021/12/02 05:28:34;;;;;;;4.10;1.20;;;;;;;2.55;82.32;99907.84;5067794;28;20499;-83
2021/12/02 05:30:59;;;;;;;3.77;1.13;;;;;;;2.50;83.14;99912.16;5067494;28;20082;-84
2021/12/02 05:33:25;;;;;;;4.97;1.00;;;;;;;2.46;83.42;99908.75;5080793;28;20024;-83
2021/12/02 05:35:50;;;;;;;6.80;1.27;;;;;;;2.44;83.38;99918.19;5069173;28;20039;-83
2021/12/02 05:38:15;;;;;;;5.40;1.20;;;;;;;2.42;83.89;99915.63;5071336;28;20433;-83
2021/12/02 05:40:40;;;;;;;4.73;1.20;;;;;;;2.42;84.44;99912.19;5071340;28;20021;-83
2021/12/02 05:43:06;;;;;;;4.90;1.40;;;;;;;2.42;83.82;99914.78;5065925;28;20103;-83
2021/12/02 05:45:31;;;;;;;4.53;1.40;;;;;;;2.38;83.85;99918.25;5069599;28;20037;-84
2021/12/02 05:47:57;;;;;;;7.47;1.93;;;;;;;2.42;84.14;99912.19;5065870;28;20029;-83
2021/12/02 05:50:22;;;;;;;4.03;1.83;;;;;;;2.38;83.65;99920.81;5065746;28;20016;-83
2021/12/02 05:52:48;;;;;;;5.93;1.53;;;;;;;2.39;83.87;99925.09;5065988;28;20052;-83
2021/12/02 05:55:13;;;;;;;5.37;1.40;;;;;;;2.41;84.33;99926.75;5065040;28;20024;-84
2021/12/02 05:57:39;;;;;;;7.30;1.43;;;;;;;2.39;84.36;99925.91;5068747;28;20491;-83
2021/12/02 06:00:07;;;;;;;4.73;1.10;;;;;;;2.35;83.83;99936.22;5065062;28;20468;-84
2021/12/02 06:02:35;;;;;;;4.53;1.33;;;;;;;2.35;83.88;99942.19;5073399;28;20680;-83
2021/12/02 06:05:00;;;;;;;2.53;0.90;;;;;;;2.33;83.50;99948.22;5069121;28;20029;-83
2021/12/02 06:07:26;;;;;;;2.37;1.00;;;;;;;2.28;83.61;99938.81;5069740;28;20041;-83
2021/12/02 06:09:53;;;;;;;5.37;1.20;;;;;;;2.21;83.84;99934.59;5065359;28;20039;-83
2021/12/02 06:12:18;;;;;;;4.13;1.10;;;;;;;2.19;83.84;99940.59;5074869;28;20031;-83
2021/12/02 06:14:43;;;;;;;4.20;1.20;;;;;;;2.18;84.14;99939.75;5072763;28;20031;-83
2021/12/02 06:17:09;;;;;;;3.87;1.30;;;;;;;2.20;84.61;99945.72;5072912;28;20067;-83
2021/12/02 06:19:34;;;;;;;3.97;1.20;;;;;;;2.22;84.73;99938.84;5064431;28;20044;-83
2021/12/02 06:21:59;;;;;;;6.53;1.30;;;;;;;2.26;84.73;99948.25;5072474;28;20134;-83
2021/12/02 06:24:29;;;;;;;2.70;1.00;;;;;;;2.30;84.78;99950.78;5069934;28;20492;-83
2021/12/02 06:26:56;;;;;;;4.13;0.90;;;;;;;2.28;84.50;99943.97;5068255;28;20055;-83
2021/12/02 06:29:21;;;;;;;4.47;0.80;;;;;;;2.28;84.55;99936.25;5074424;28;20021;-83
2021/12/02 06:31:46;;;;;;;4.30;1.00;;;;;;;2.27;84.62;99943.97;5069979;28;20103;-83
2021/12/02 06:34:12;;;;;;;4.87;1.10;;;;;;;2.26;84.56;99950.81;5070486;28;20104;-83
2021/12/02 06:36:37;;;;;;;4.90;1.00;;;;;;;2.23;83.80;99937.16;5070518;28;20103;-83
2021/12/02 06:39:05;;;;;;;4.90;1.27;;;;;;;2.21;83.74;99950.00;5071994;28;20836;-83
2021/12/02 06:41:30;;;;;;;7.30;1.30;;;;;;;2.23;83.88;99952.53;5073015;28;20075;-83
2021/12/02 06:43:56;;;;;;;5.90;1.40;;;;;;;2.26;84.08;99957.66;5071280;28;20487;-83
2021/12/02 06:46:21;;;;;;;4.00;1.20;;;;;;;2.27;83.81;99959.38;5068271;28;20028;-83
2021/12/02 06:48:48;;;;;;;9.67;2.00;;;;;;;2.27;84.10;99954.25;5069202;28;20117;-83
2021/12/02 06:51:14;;;;;;;6.23;1.97;;;;;;;2.25;84.00;99951.66;5068499;28;20104;-83
2021/12/02 06:53:40;;;;;;;8.20;2.03;;;;;;;2.25;84.05;99966.22;5063698;28;20147;-83
2021/12/02 06:56:05;;;;;;;4.77;1.40;;;;;;;2.30;83.91;99976.47;5068768;28;20024;-83
2021/12/02 06:58:31;;;;;;;6.47;1.70;;;;;;;2.28;83.85;99971.34;5073588;28;20099;-84
2021/12/02 07:00:56;;;;;;;4.07;1.40;;;;;;;2.24;83.66;99973.06;5071144;28;20471;-83
2021/12/02 07:03:21;;;;;;;3.60;1.50;;;;;;;2.19;83.76;99976.50;5069783;28;20028;-83
2021/12/02 07:05:47;;;;;;;4.80;1.20;;;;;;;2.20;83.83;99973.97;5072140;28;20434;-84
2021/12/02 07:08:13;;;;;;;3.70;1.00;;;;;;;2.20;83.83;99984.22;5072840;28;20047;-84
2021/12/02 07:10:38;;;;;;;7.20;1.40;;;;;;;2.21;84.10;99988.50;5069917;28;20028;-84
2021/12/02 07:13:04;;;;;;;4.87;1.20;;;;;;;2.20;83.96;99991.94;5072640;28;20446;-83
2021/12/02 07:17:59;;;;;;;4.43;1.30;;;;;;;2.23;83.57;99999.59;5067271;28;20040;-83
2021/12/02 07:20:27;;;;;;;8.13;2.20;;;;;;;2.23;83.56;100004.72;5072692;28;20024;-83
2021/12/02 07:22:53;;;;;;;4.80;1.50;;;;;;;2.27;83.61;100001.28;5071453;28;20020;-83
2021/12/02 07:25:18;;;;;;;6.40;1.80;;;;;;;2.25;83.31;100000.44;5070572;28;20459;-83
2021/12/02 07:27:44;;;;;;;3.83;2.07;;;;;;;2.25;83.35;99999.59;5082488;28;20033;-83
2021/12/02 07:30:10;;;;;;;7.03;2.50;;;;;;;2.26;83.55;99993.59;5068613;28;20085;-83
2021/12/02 07:32:39;;;;;;;4.67;1.00;;;;;;;2.22;83.21;99997.88;5073746;28;20052;-83
2021/12/02 07:35:10;;;;;;;6.80;1.20;;;;;;;2.22;83.27;99994.47;5069933;28;20024;-83
2021/12/02 07:37:35;;;;;;;4.18;1.63;;;;;;;2.22;83.34;99986.78;5070788;28;20210;-83
2021/12/02 07:40:02;;;;;;;3.40;1.33;;;;;;;2.19;83.17;99990.22;5071173;28;20048;-83
2021/12/02 07:42:28;;;;;;;5.07;1.53;;;;;;;2.19;82.98;99992.78;5067933;28;20363;-83
2021/12/02 07:44:54;;;;;;;4.33;1.07;;;;;;;2.18;83.26;100011.59;5073632;28;20035;-83
2021/12/02 07:47:20;;;;;;;4.47;1.00;;;;;;;2.16;83.08;100015.88;5069301;28;20020;-83
2021/12/02 07:49:49;;;;;;;7.03;2.30;;;;;;;2.12;83.09;100012.50;5071496;28;20023;-84
2021/12/02 07:52:18;;;;;;;7.10;2.30;;;;;;;2.10;82.82;100009.06;5069722;28;20025;-83
2021/12/02 07:54:45;;;;;;;4.10;1.47;;;;;;;2.11;83.20;100020.19;5069777;28;20395;-84
2021/12/02 07:57:13;;;;;;;4.93;1.60;;;;;;;2.06;82.70;100025.34;5070618;28;20035;-83
2021/12/02 07:59:39;;;;;;;5.90;1.00;;;;;;;2.07;82.35;100031.31;5069097;28;20066;-83
2021/12/02 08:02:05;;;;;;;3.77;0.90;;;;;;;2.03;82.13;100035.59;5071668;28;20459;-83
2021/12/02 08:04:31;;;;;;;8.20;1.30;;;;;;;1.99;81.57;100036.47;5070048;28;20111;-83
2021/12/02 08:06:56;;;;;;;8.83;3.60;;;;;;;2.01;82.09;100036.47;5069267;28;20081;-83
2021/12/02 08:09:21;;;;;;;16.87;9.77;;;;;;;2.02;82.32;100038.19;5069711;28;20056;-84
2021/12/02 08:11:47;;;;;;;11.97;4.13;;;;;;;2.01;82.03;100050.16;5070106;28;20075;-83
2021/12/02 08:14:15;;;;;;;9.90;5.50;;;;;;;2.00;81.77;100055.28;5069968;28;20384;-83
2021/12/02 08:16:41;;;;;;;12.37;6.33;;;;;;;2.02;82.03;100051.00;5069778;28;20057;-83
2021/12/02 08:19:06;;;;;;;10.80;4.47;;;;;;;2.02;82.19;100056.97;5070042;28;20452;-84
2021/12/02 08:21:32;;;;;;;7.53;1.90;;;;;;;2.08;82.17;100064.66;5070621;28;20027;-83
2021/12/02 08:23:57;;;;;;;6.70;1.20;;;;;;;2.07;82.24;100070.66;5071580;28;20028;-83
2021/12/02 08:26:22;;;;;;;7.97;1.10;;;;;;;2.11;81.98;100072.38;5071172;28;20056;-83
2021/12/02 08:28:48;;;;;;;6.03;1.10;;;;;;;2.11;81.96;100071.50;5072774;28;20024;-83
2021/12/02 08:31:14;;;;;;;6.83;1.00;;;;;;;2.14;82.05;100076.63;5077128;28;20082;-83
2021/12/02 08:33:40;;;;;;;5.60;0.90;;;;;;;2.18;82.12;100073.19;5068226;28;20599;-83
2021/12/02 08:36:05;;;;;;;10.20;1.40;;;;;;;2.18;81.82;100073.19;5065908;28;20146;-83
2021/12/02 08:38:32;;;;;;;3.73;1.00;;;;;;;2.23;81.82;100080.88;5065819;28;20037;-83
2021/12/02 08:40:59;;;;;;;7.70;3.03;;;;;;;2.28;82.13;100087.69;5067884;28;20039;-83
2021/12/02 08:43:26;;;;;;;6.40;1.90;;;;;;;2.30;81.94;100089.38;5066527;28;20029;-83
2021/12/02 08:45:51;;;;;;;7.70;2.30;;;;;;;2.33;82.16;100092.78;5064975;28;20025;-83
2021/12/02 08:48:17;;;;;;;6.90;2.30;;;;;;;2.37;82.23;100094.50;5064748;28;20537;-84
2021/12/02 08:50:44;;;;;;;8.00;2.03;;;;;;;2.43;82.56;100093.59;5063083;28;20028;-83
2021/12/02 08:53:10;;;;;;;7.73;1.90;;;;;;;2.50;83.24;100103.00;5063894;28;20078;-83
2021/12/02 08:55:37;;;;;;;8.90;1.90;;;;;;;2.54;82.76;100109.84;5069580;28;20020;-84
2021/12/02 08:58:04;;;;;;;5.33;1.70;;;;;;;2.64;83.18;100117.47;5070976;28;20377;-84
2021/12/02 09:00:36;;;;;;;7.03;1.50;;;;;;;2.65;82.20;100114.06;5070549;28;20017;-84
2021/12/02 09:03:03;;;;;;;6.53;1.50;;;;;;;2.73;82.25;100122.59;5069166;28;20020;-83
2021/12/02 09:05:29;;;;;;;5.63;1.47;;;;;;;2.72;82.09;100126.03;5071382;28;20107;-84
2021/12/02 09:07:54;;;;;;;8.43;2.40;;;;;;;2.75;82.28;100125.97;5070217;28;20132;-84
2021/12/02 09:10:22;;;;;;;5.53;1.40;;;;;;;2.75;82.11;100132.84;5071640;28;20514;-84
2021/12/02 09:12:49;;;;;;;6.10;1.70;;;;;;;2.76;82.29;100140.53;5070895;28;21469;-84
2021/12/02 09:15:15;;;;;;;7.07;1.53;;;;;;;2.75;82.66;100136.25;5071605;28;20036;-83
2021/12/02 09:17:40;;;;;;;6.10;1.90;;;;;;;2.76;82.74;100144.81;5069407;28;20384;-83
2021/12/02 09:20:09;;;;;;;5.53;1.57;;;;;;;2.76;82.14;100142.25;5069266;28;20472;-83
2021/12/02 09:22:35;;;;;;;7.20;1.83;;;;;;;2.72;82.30;100151.72;5069886;28;20020;-83
2021/12/02 09:25:00;;;;;;;5.40;1.70;;;;;;;2.75;81.62;100153.41;5076062;28;20046;-83
2021/12/02 09:27:25;;;;;;;6.40;1.60;;;;;;;2.72;81.48;100154.28;5070454;28;20096;-83
2021/12/02 09:29:51;;;;;;;10.03;1.83;;;;;;;2.73;81.47;100158.56;5070829;28;20036;-83
2021/12/02 09:32:16;;;;;;;11.57;1.53;;;;;;;2.75;81.61;100154.22;5068733;28;20036;-83
2021/12/02 09:34:41;;;;;;;8.40;1.73;;;;;;;2.78;81.67;100159.38;5069755;28;20029;-83
2021/12/02 09:37:07;;;;;;;6.40;1.77;;;;;;;2.79;80.67;100163.63;5071418;28;20118;-83
2021/12/02 09:39:34;;;;;;;6.07;1.30;;;;;;;2.80;80.62;100164.50;5074044;28;20023;-83
2021/12/02 09:42:01;;;;;;;6.53;1.67;;;;;;;2.78;81.13;100161.94;5069029;28;20028;-83
2021/12/02 09:44:27;;;;;;;6.97;1.40;;;;;;;2.79;80.02;100168.78;5084454;28;20040;-83
2021/12/02 09:46:53;;;;;;;5.97;1.10;;;;;;;2.70;80.49;100158.56;5064756;28;20024;-83
2021/12/02 09:49:20;;;;;;;5.37;1.37;;;;;;;2.67;80.59;100167.09;5066281;28;20032;-84
2021/12/02 09:54:19;;;;;;;6.18;1.35;;;;;;;2.62;81.08;100175.69;5067460;28;20142;-83
2021/12/02 09:56:49;;;;;;;6.37;1.43;;;;;;;2.62;80.21;100166.28;5065382;28;20029;-83
2021/12/02 10:02:03;;;;;;;4.80;1.60;;;;;;;2.54;80.19;100176.59;5064777;28;20033;-83
2021/12/02 10:04:30;;;;;;;5.17;1.13;;;;;;;2.49;79.91;100172.31;5067900;28;20024;-83
2021/12/02 10:07:17;;;;;;;3.77;1.00;;;;;;;2.45;79.77;100170.63;5067770;28;20016;-83
2021/12/02 10:10:04;;;;;;;3.60;0.90;;;;;;;2.39;80.04;100166.38;5066462;28;20425;-83
2021/12/02 10:12:33;;;;;;;3.77;1.20;;;;;;;2.35;79.99;100169.81;5083925;28;20025;-83
2021/12/02 10:15:00;;;;;;;4.20;1.37;;;;;;;2.33;80.11;100163.81;5064759;28;20441;-84
2021/12/02 10:17:52;;;;;;;5.73;1.30;;;;;;;2.37;81.45;100180.94;5070151;28;20029;-83
2021/12/02 10:23:19;;;;;;;8.30;1.60;;;;;;;2.52;81.90;100178.31;5066997;28;20024;-83
2021/12/02 10:25:54;;;;;;;8.60;1.90;;;;;;;2.60;80.98;100182.56;5068289;28;20055;-83
2021/12/02 10:28:20;;;;;;;8.87;2.10;;;;;;;2.70;81.30;100176.53;5067180;28;20043;-83
2021/12/02 10:30:52;;;;;;;8.20;2.17;;;;;;;2.69;81.10;100177.41;5072114;28;20016;-83
2021/12/02 10:33:37;;;;;;;7.18;2.30;;;;;;;2.75;81.02;100176.50;5075101;28;20028;-83
2021/12/02 10:36:06;;;;;;;5.20;2.20;;;;;;;2.77;81.40;100179.94;5071590;28;20539;-83
2021/12/02 10:38:42;;;;;;;9.53;2.73;;;;;;;2.80;80.96;100179.91;5071246;28;20024;-83
2021/12/02 10:41:16;;;;;;;8.00;2.10;;;;;;;2.79;80.08;100184.19;5071607;28;20024;-84
2021/12/02 10:44:03;;;;;;;7.83;2.67;;;;;;;2.90;81.13;100180.75;5071545;28;20036;-84
2021/12/02 10:46:29;;;;;;;6.50;2.70;;;;;;;2.95;81.08;100189.25;5071868;28;20039;-83
2021/12/02 10:48:54;;;;;;;6.83;2.90;;;;;;;2.97;80.81;100187.53;5071698;28;20032;-84
2021/12/02 10:51:38;;;;;;;7.43;2.10;;;;;;;3.07;79.71;100204.63;5072222;28;20515;-83
2021/12/02 10:54:13;;;;;;;7.97;2.13;;;;;;;3.10;79.19;100204.59;5071359;28;20074;-83
2021/12/02 10:56:41;;;;;;;5.77;2.10;;;;;;;3.22;80.18;100203.69;5069729;28;20396;-83
2021/12/02 10:59:39;;;;;;;5.37;2.03;;;;;;;3.29;80.00;100210.50;5072024;28;20037;-84
2021/12/02 11:02:07;;;;;;;5.53;1.97;;;;;;;3.30;77.73;100216.47;5071493;28;20058;-84
2021/12/02 11:04:37;;;;;;;6.47;2.10;;;;;;;3.30;77.10;100217.34;5070630;28;20027;-83
2021/12/02 11:07:02;;;;;;;5.50;2.20;;;;;;;3.29;78.10;100214.78;5068987;28;20044;-83
2021/12/02 11:09:30;;;;;;;5.17;2.37;;;;;;;3.28;78.42;100207.91;5069814;28;20032;-84
2021/12/02 11:12:15;;;;;;;6.80;2.10;;;;;;;3.29;78.25;100210.50;5071814;28;20485;-84
2021/12/02 11:15:06;;;;;;;5.73;2.10;;;;;;;3.34;78.46;100220.75;5067601;28;20113;-83
2021/12/02 11:17:53;;;;;;;4.80;2.10;;;;;;;3.30;78.58;100214.78;5068871;28;20036;-83
2021/12/02 11:20:29;;;;;;;3.10;1.53;;;;;;;3.29;78.14;100219.91;5076610;28;20032;-83
2021/12/02 11:23:09;;;;;;;3.40;1.47;;;;;;;3.26;78.13;100214.78;5071017;28;20024;-83
2021/12/02 11:25:38;;;;;;;3.93;1.40;;;;;;;3.23;78.50;100225.94;5069692;28;20031;-84
2021/12/02 11:28:06;;;;;;;2.87;1.30;;;;;;;3.27;78.25;100232.78;5068251;28;20048;-84
2021/12/02 11:30:31;;;;;;;3.60;0.93;;;;;;;3.24;77.63;100224.25;5068641;28;20020;-84
2021/12/02 11:33:05;;;;;;;1.63;0.90;;;;;;;3.31;77.62;100216.50;5069497;28;20057;-84
2021/12/02 11:35:35;;;;;;;2.10;1.10;;;;;;;3.35;76.69;100225.03;5070222;28;20024;-84
2021/12/02 11:38:09;;;;;;;2.23;0.97;;;;;;;3.42;77.12;100210.41;5071017;28;20028;-83
2021/12/02 11:40:40;;;;;;;3.20;1.00;;;;;;;3.60;76.70;100206.84;5069191;28;20078;-84
2021/12/02 11:43:08;;;;;;;3.47;1.00;;;;;;;3.70;76.44;100213.66;5068522;28;20452;-84
2021/12/02 11:45:42;;;;;;;4.63;1.13;;;;;;;3.76;77.53;100205.03;5070298;28;20037;-84
2021/12/02 11:48:07;;;;;;;3.07;0.83;;;;;;;3.75;76.90;100209.34;5068578;28;20025;-83
2021/12/02 11:50:33;;;;;;;2.73;1.00;;;;;;;3.75;77.60;100219.63;5071098;28;20455;-84
2021/12/02 11:52:58;;;;;;;2.30;0.90;;;;;;;3.71;77.56;100228.22;5070504;28;20071;-83
2021/12/02 11:55:37;;;;;;;2.07;0.90;;;;;;;3.70;77.27;100236.81;5069677;28;20040;-83
2021/12/02 11:58:04;;;;;;;3.03;0.93;;;;;;;3.60;76.96;100220.59;5070532;28;20097;-84
2021/12/02 12:00:30;;;;;;;2.83;0.80;;;;;;;3.57;77.02;100237.75;5070024;28;20033;-84
2021/12/02 12:03:07;;;;;;;3.00;0.80;;;;;;;3.54;76.93;100241.19;5069565;28;20028;-84